Time;durP1;ratioP1;P1;durP2;ratioP2;P2;SDS_P1;SDS_P2;PMS_P1;PMS_P2;Temp;Humidity;BMP_temperature;BMP_pressure;BME280_temperature;BME280_humidity;BME280_pressure;Samples;Min_cycle;Max_cycle;Signal;HPM_P1;HPM_P2
2021/12/11 00:02:06;;;;;;;;;;;15.10;42.60;13.90;100037.00;;;;5096953;27;19942;-63
2021/12/11 00:04:56;;;;;;;;;;;15.10;42.50;13.90;100036.00;;;;5104547;27;20424;-63
2021/12/11 00:07:42;;;;;;;;;;;15.10;43.20;13.90;100035.00;;;;5081736;28;19927;-63
2021/12/11 00:10:33;;;;;;;;;;;15.10;42.50;13.90;100043.00;;;;5099951;28;19920;-63
2021/12/11 00:13:25;;;;;;;;;;;15.10;42.50;13.90;100045.00;;;;5091282;28;19923;-62
2021/12/11 00:16:33;;;;;;;;;;;15.10;42.50;13.90;100049.00;;;;5102860;27;19939;-63
2021/12/11 00:19:23;;;;;;;;;;;15.00;42.50;13.80;100049.00;;;;5091893;28;19916;-63
2021/12/11 00:22:11;;;;;;;;;;;15.00;42.50;13.80;100060.00;;;;5099870;28;19915;-63
2021/12/11 00:25:09;;;;;;;;;;;15.00;42.50;13.80;100064.00;;;;5089710;28;20300;-63
2021/12/11 00:28:06;;;;;;;;;;;15.00;42.50;13.80;100076.00;;;;5105244;27;20007;-63
2021/12/11 00:30:52;;;;;;;;;;;15.00;42.50;13.80;100084.00;;;;5079636;28;20369;-63
2021/12/11 00:33:38;;;;;;;;;;;15.00;42.40;13.80;100083.00;;;;5100424;27;20290;-63
2021/12/11 00:36:31;;;;;;;;;;;15.00;42.50;13.80;100093.00;;;;5089925;28;19916;-63
2021/12/11 00:39:18;;;;;;;;;;;15.00;42.40;13.80;100106.00;;;;5094227;28;19951;-63
2021/12/11 00:42:08;;;;;;;;;;;15.00;42.50;13.80;100113.00;;;;5093784;28;19962;-63
2021/12/11 00:44:55;;;;;;;;;;;15.00;42.50;13.80;100118.00;;;;5069992;28;20074;-63
2021/12/11 00:47:50;;;;;;;;;;;15.00;42.50;13.80;100119.00;;;;5091470;28;19938;-63
2021/12/11 00:50:44;;;;;;;;;;;15.00;42.50;13.80;100116.00;;;;5078604;28;20073;-63
2021/12/11 00:53:33;;;;;;;;;;;15.00;42.50;13.80;100123.00;;;;5092706;28;19916;-63
2021/12/11 00:56:30;;;;;;;;;;;14.90;42.40;13.80;100124.00;;;;5083028;28;19927;-63
2021/12/11 00:59:18;;;;;;;;;;;15.00;42.40;13.80;100133.00;;;;5095384;28;19919;-63
2021/12/11 01:02:05;;;;;;;;;;;14.90;42.40;13.80;100149.00;;;;5082480;28;20369;-63
2021/12/11 01:04:51;;;;;;;;;;;15.00;42.40;13.80;100154.00;;;;5087202;28;19916;-64
2021/12/11 01:07:38;;;;;;;;;;;14.90;42.30;13.80;100148.00;;;;5105709;27;20023;-63
2021/12/11 01:10:25;;;;;;;;;;;15.00;42.40;13.80;100166.00;;;;5094344;28;20383;-63
2021/12/11 01:13:15;;;;;;;;;;;14.90;42.30;13.80;100164.00;;;;5094071;28;19962;-63
2021/12/11 01:16:06;;;;;;;;;;;15.00;42.40;13.80;100171.00;;;;5084537;28;20284;-63
2021/12/11 01:18:57;;;;;;;;;;;14.90;42.30;13.80;100183.00;;;;5075696;28;19927;-63
2021/12/11 01:21:45;;;;;;;;;;;15.00;42.40;13.70;100186.00;;;;5080370;28;20434;-64
2021/12/11 01:24:43;;;;;;;;;;;15.00;42.40;13.70;100198.00;;;;5086976;28;19968;-63
2021/12/11 01:27:30;;;;;;;;;;;15.00;42.40;13.70;100207.00;;;;5093368;27;20369;-63
2021/12/11 01:30:19;;;;;;;;;;;14.90;42.30;13.70;100207.00;;;;5097489;28;19932;-63
2021/12/11 01:33:06;;;;;;;;;;;14.90;42.30;13.70;100206.00;;;;5105894;27;20011;-63
2021/12/11 01:35:52;;;;;;;;;;;15.00;42.40;13.70;100213.00;;;;5090372;28;20392;-63
2021/12/11 01:38:39;;;;;;;;;;;14.90;42.40;13.70;100213.00;;;;5086827;28;19927;-63
2021/12/11 01:41:26;;;;;;;;;;;14.90;42.30;13.70;100222.00;;;;5091237;28;19927;-63
2021/12/11 01:44:18;;;;;;;;;;;14.90;42.30;13.70;100225.00;;;;5086323;28;19923;-63
2021/12/11 01:47:09;;;;;;;;;;;14.90;42.30;13.70;100238.00;;;;5085306;28;19916;-63
2021/12/11 01:49:58;;;;;;;;;;;14.90;42.30;13.70;100238.00;;;;5099159;27;19916;-63
2021/12/11 01:53:23;;;;;;;;;;;14.90;42.30;13.70;100241.00;;;;5104733;27;20361;-63
2021/12/11 01:56:12;;;;;;;;;;;14.90;42.30;13.70;100244.00;;;;5085996;28;19923;-63
2021/12/11 01:59:16;;;;;;;;;;;14.90;42.30;13.70;100256.00;;;;5109475;27;19915;-63
2021/12/11 02:02:06;;;;;;;;;;;14.90;42.30;13.70;100254.00;;;;5092499;28;19963;-63
2021/12/11 02:04:54;;;;;;;;;;;14.90;43.00;13.70;100263.00;;;;5082465;28;19916;-62
2021/12/11 02:07:46;;;;;;;;;;;14.90;42.30;13.70;100272.00;;;;5077618;28;19920;-63
2021/12/11 02:10:44;;;;;;;;;;;14.90;42.30;13.70;100268.00;;;;5095680;28;19919;-63
2021/12/11 02:13:47;;;;;;;;;;;14.90;42.30;13.70;100271.00;;;;5090262;28;20246;-63
2021/12/11 02:16:42;;;;;;;;;;;14.90;42.30;13.70;100287.00;;;;5090303;28;19919;-63
2021/12/11 02:19:32;;;;;;;;;;;14.90;42.30;13.70;100288.00;;;;5078906;28;20112;-63
2021/12/11 02:22:21;;;;;;;;;;;14.90;42.20;13.70;100298.00;;;;5100937;27;20353;-63
2021/12/11 02:25:23;;;;;;;;;;;14.90;42.20;13.70;100294.00;;;;5073392;28;19916;-63
2021/12/11 02:28:13;;;;;;;;;;;14.90;42.20;13.70;100293.00;;;;5073944;28;19917;-63
2021/12/11 02:31:05;;;;;;;;;;;14.90;42.20;13.70;100304.00;;;;5094419;28;20511;-63
2021/12/11 02:34:09;;;;;;;;;;;14.90;42.20;13.70;100312.00;;;;5094639;27;19916;-63
2021/12/11 02:37:18;;;;;;;;;;;14.90;42.20;13.60;100315.00;;;;5105208;27;19919;-63
2021/12/11 02:40:27;;;;;;;;;;;14.90;42.20;13.60;100331.00;;;;5086132;28;20002;-63
2021/12/11 02:43:54;;;;;;;;;;;14.90;42.20;13.60;100331.00;;;;5086151;28;19916;-63
2021/12/11 02:46:54;;;;;;;;;;;14.90;42.20;13.60;100338.00;;;;5079447;28;20003;-63
2021/12/11 02:49:48;;;;;;;;;;;14.90;42.20;13.60;100338.00;;;;5080712;28;19916;-63
2021/12/11 02:52:37;;;;;;;;;;;14.80;42.20;13.60;100339.00;;;;5104656;28;19959;-63
2021/12/11 02:55:39;;;;;;;;;;;15.10;42.30;13.60;100347.00;;;;5088386;28;19916;-63
2021/12/11 02:58:30;;;;;;;;;;;14.80;42.10;13.60;100346.00;;;;5094335;28;19968;-63
2021/12/11 03:01:25;;;;;;;;;;;14.80;42.10;13.60;100363.00;;;;5092648;28;19926;-63
2021/12/11 03:04:22;;;;;;;;;;;14.80;42.10;13.60;100359.00;;;;5084434;28;20014;-63
2021/12/11 03:07:10;;;;;;;;;;;14.80;42.20;13.60;100363.00;;;;5097967;27;19917;-63
2021/12/11 03:09:56;;;;;;;;;;;14.80;42.20;13.60;100363.00;;;;5077351;28;20421;-63
2021/12/11 03:12:44;;;;;;;;;;;14.80;42.20;13.60;100375.00;;;;5079426;28;19924;-63
2021/12/11 03:15:31;;;;;;;;;;;14.80;42.20;13.60;100379.00;;;;5099712;28;20007;-63
2021/12/11 03:18:17;;;;;;;;;;;14.80;42.10;13.60;100380.00;;;;5092010;28;19924;-63
2021/12/11 03:21:03;;;;;;;;;;;14.80;42.10;13.60;100380.00;;;;5099618;28;19984;-63
2021/12/11 03:23:50;;;;;;;;;;;14.80;42.20;13.50;100385.00;;;;5091041;28;19920;-63
2021/12/11 03:26:38;;;;;;;;;;;14.80;42.20;13.50;100391.00;;;;5103299;28;19920;-63
2021/12/11 03:29:24;;;;;;;;;;;14.80;42.20;13.50;100392.00;;;;5090743;28;19938;-63
2021/12/11 03:32:11;;;;;;;;;;;14.80;42.20;13.50;100407.00;;;;5100150;28;19982;-63
2021/12/11 03:34:57;;;;;;;;;;;14.80;42.80;13.50;100414.00;;;;5080687;28;19924;-63
2021/12/11 03:37:43;;;;;;;;;;;14.80;42.10;13.50;100416.00;;;;5075458;28;20008;-63
2021/12/11 03:40:29;;;;;;;;;;;14.80;42.10;13.50;100430.00;;;;5077775;28;19965;-63
2021/12/11 03:43:17;;;;;;;;;;;14.80;42.10;13.50;100427.00;;;;5091089;28;19916;-63
2021/12/11 03:46:05;;;;;;;;;;;14.80;42.20;13.50;100425.00;;;;5102512;27;19917;-63
2021/12/11 03:48:59;;;;;;;;;;;14.80;42.20;13.60;100434.00;;;;5095889;28;19995;-63
2021/12/11 03:51:46;;;;;;;;;;;14.80;42.20;13.50;100427.00;;;;5088560;28;20357;-63
2021/12/11 03:54:34;;;;;;;;;;;14.80;42.10;13.50;100436.00;;;;5090404;28;19916;-63
2021/12/11 03:57:23;;;;;;;;;;;14.80;42.10;13.50;100436.00;;;;5096063;28;20010;-63
2021/12/11 04:00:15;;;;;;;;;;;14.80;42.10;13.50;100440.00;;;;5110125;27;19994;-63
2021/12/11 04:03:05;;;;;;;;;;;14.80;42.10;13.50;100442.00;;;;5102570;28;19936;-63
2021/12/11 04:05:52;;;;;;;;;;;14.80;42.10;13.50;100453.00;;;;5080196;28;19920;-63
2021/12/11 04:08:42;;;;;;;;;;;14.70;42.10;13.50;100458.00;;;;5083506;28;20002;-63
2021/12/11 04:11:34;;;;;;;;;;;14.80;42.10;13.50;100463.00;;;;5110702;27;20393;-63
2021/12/11 04:14:22;;;;;;;;;;;14.80;42.10;13.50;100472.00;;;;5104197;27;20362;-63
2021/12/11 04:17:10;;;;;;;;;;;14.70;42.10;13.50;100482.00;;;;5080518;28;20007;-63
2021/12/11 04:19:57;;;;;;;;;;;14.70;42.10;13.50;100484.00;;;;5084172;28;19927;-63
2021/12/11 04:22:44;;;;;;;;;;;14.70;42.10;13.50;100478.00;;;;5078495;28;19920;-63
2021/12/11 04:25:30;;;;;;;;;;;14.70;42.10;13.50;100482.00;;;;5091216;28;19923;-63
2021/12/11 04:28:18;;;;;;;;;;;14.70;42.80;13.50;100485.00;;;;5090581;28;20010;-62
2021/12/11 04:31:10;;;;;;;;;;;14.80;42.20;13.50;100493.00;;;;5103381;27;20453;-63
2021/12/11 04:33:59;;;;;;;;;;;14.70;42.10;13.50;100499.00;;;;5073310;28;19927;-63
2021/12/11 04:36:51;;;;;;;;;;;14.80;42.20;13.50;100494.00;;;;5085206;28;19924;-63
2021/12/11 04:39:39;;;;;;;;;;;14.70;42.10;13.50;100498.00;;;;5086700;28;19928;-63
2021/12/11 04:45:33;;;;;;;;;;;14.70;42.10;13.50;100513.00;;;;5099677;27;19942;-63
2021/12/11 04:51:24;;;;;;;;;;;14.70;42.20;13.50;100521.00;;;;5102330;27;19928;-63
2021/12/11 04:54:35;;;;;;;;;;;14.70;42.10;13.50;100535.00;;;;5099165;27;19985;-63
2021/12/11 05:06:48;;;;;;;;;;;14.70;42.20;13.40;100550.00;;;;5067100;28;19916;-63
2021/12/11 05:09:41;;;;;;;;;;;14.70;42.20;13.40;100556.00;;;;5076426;28;19916;-63
2021/12/11 05:12:34;;;;;;;;;;;14.70;42.20;13.40;100566.00;;;;5075920;28;20009;-63
2021/12/11 05:15:32;;;;;;;;;;;14.70;42.20;13.40;100565.00;;;;5069450;28;19916;-63
2021/12/11 05:18:21;;;;;;;;;;;14.70;42.20;13.40;100574.00;;;;5097340;27;19916;-63
2021/12/11 05:21:15;;;;;;;;;;;14.70;42.20;13.40;100577.00;;;;5105501;27;20326;-63
2021/12/11 05:24:01;;;;;;;;;;;14.70;42.20;13.40;100580.00;;;;5100092;27;19920;-63
2021/12/11 05:26:47;;;;;;;;;;;14.70;42.20;13.40;100587.00;;;;5101894;27;19924;-62
2021/12/11 05:29:33;;;;;;;;;;;14.70;42.20;13.40;100593.00;;;;5109728;27;19924;-62
2021/12/11 05:32:21;;;;;;;;;;;14.60;42.10;13.40;100603.00;;;;5087807;28;20258;-62
2021/12/11 05:35:08;;;;;;;;;;;14.60;42.10;13.40;100602.00;;;;5099374;28;19924;-63
2021/12/11 05:37:54;;;;;;;;;;;14.60;42.20;13.40;100609.00;;;;5070095;28;20360;-63
2021/12/11 05:40:43;;;;;;;;;;;14.60;42.10;13.40;100610.00;;;;5106321;27;19927;-63
2021/12/11 05:43:29;;;;;;;;;;;14.60;42.10;13.40;100617.00;;;;5090366;28;19923;-62
2021/12/11 05:46:15;;;;;;;;;;;14.60;42.20;13.40;100615.00;;;;5077134;28;20344;-63
2021/12/11 05:49:02;;;;;;;;;;;14.60;42.10;13.40;100618.00;;;;5092878;28;20006;-63
2021/12/11 05:51:49;;;;;;;;;;;14.60;42.10;13.40;100627.00;;;;5082642;28;20380;-63
2021/12/11 05:54:36;;;;;;;;;;;14.60;42.10;13.40;100630.00;;;;5108236;27;20293;-63
2021/12/11 05:57:22;;;;;;;;;;;14.60;42.10;13.40;100639.00;;;;5098791;28;19926;-63
2021/12/11 06:00:09;;;;;;;;;;;14.60;42.10;13.30;100641.00;;;;5076801;28;19920;-62
2021/12/11 06:02:55;;;;;;;;;;;14.60;42.10;13.30;100652.00;;;;5073378;28;19920;-63
2021/12/11 06:05:41;;;;;;;;;;;14.60;42.10;13.30;100659.00;;;;5109502;27;19916;-62
2021/12/11 06:08:27;;;;;;;;;;;14.60;42.10;13.30;100665.00;;;;5108944;27;20006;-63
2021/12/11 06:11:14;;;;;;;;;;;14.60;42.10;13.30;100663.00;;;;5086356;28;20022;-63
2021/12/11 06:14:00;;;;;;;;;;;14.60;42.10;13.30;100679.00;;;;5090288;28;19916;-63
2021/12/11 06:16:48;;;;;;;;;;;14.60;42.10;13.30;100681.00;;;;5092588;28;19920;-63
2021/12/11 06:19:34;;;;;;;;;;;14.50;42.10;13.30;100681.00;;;;5095383;27;19923;-63
2021/12/11 06:22:27;;;;;;;;;;;14.60;42.10;13.30;100670.00;;;;5102705;27;19923;-62
2021/12/11 06:25:19;;;;;;;;;;;14.60;42.10;13.30;100686.00;;;;5088061;28;20284;-62
2021/12/11 06:28:05;;;;;;;;;;;14.60;42.20;13.30;100680.00;;;;5076908;28;19916;-63
2021/12/11 06:30:52;;;;;;;;;;;14.60;42.20;13.30;100691.00;;;;5103213;27;19927;-62
2021/12/11 06:33:38;;;;;;;;;;;14.50;42.10;13.30;100688.00;;;;5081398;28;19958;-62
2021/12/11 06:36:26;;;;;;;;;;;14.50;42.10;13.30;100689.00;;;;5095454;28;19941;-62
2021/12/11 06:39:15;;;;;;;;;;;14.50;42.10;13.30;100695.00;;;;5104264;27;20020;-62
2021/12/11 06:42:01;;;;;;;;;;;14.50;42.10;13.30;100690.00;;;;5066128;28;19924;-63
2021/12/11 06:44:47;;;;;;;;;;;14.50;42.10;13.30;100698.00;;;;5084898;28;19916;-63
2021/12/11 06:47:34;;;;;;;;;;;14.50;42.00;13.30;100704.00;;;;5085952;28;19916;-63
2021/12/11 06:50:20;;;;;;;;;;;14.50;42.00;13.30;100713.00;;;;5094144;28;21745;-63
2021/12/11 06:53:13;;;;;;;;;;;14.50;42.10;13.30;100724.00;;;;5097758;28;19927;-63
2021/12/11 06:55:59;;;;;;;;;;;14.50;42.10;13.30;100717.00;;;;5085856;28;19916;-62
2021/12/11 06:58:45;;;;;;;;;;;14.60;42.10;13.30;100717.00;;;;5083090;28;19939;-62
2021/12/11 07:01:31;;;;;;;;;;;14.50;42.10;13.30;100724.00;;;;5085089;28;20029;-63
2021/12/11 07:04:17;;;;;;;;;;;14.50;42.10;13.30;100735.00;;;;5080336;28;19926;-63
2021/12/11 07:07:03;;;;;;;;;;;14.50;42.00;13.30;100748.00;;;;5088193;28;20002;-62
2021/12/11 07:09:50;;;;;;;;;;;14.50;42.00;13.30;100758.00;;;;5077504;28;19948;-62
2021/12/11 07:12:36;;;;;;;;;;;14.50;42.00;13.30;100762.00;;;;5083702;28;19923;-62
2021/12/11 07:15:22;;;;;;;;;;;14.50;42.00;13.30;100770.00;;;;5091632;28;19916;-63
2021/12/11 07:18:08;;;;;;;;;;;14.50;42.00;13.30;100786.00;;;;5082324;28;19916;-62
2021/12/11 07:20:55;;;;;;;;;;;14.50;42.00;13.20;100787.00;;;;5086751;28;19916;-62
2021/12/11 07:23:47;;;;;;;;;;;14.50;41.90;13.30;100798.00;;;;5089379;28;20473;-62
2021/12/11 07:26:34;;;;;;;;;;;14.50;42.00;13.30;100806.00;;;;5088012;28;19916;-64
2021/12/11 07:29:20;;;;;;;;;;;14.50;42.00;13.30;100808.00;;;;5091876;28;19923;-62
2021/12/11 07:32:07;;;;;;;;;;;14.50;42.00;13.20;100817.00;;;;5089328;28;19943;-62
2021/12/11 07:34:53;;;;;;;;;;;14.50;41.90;13.20;100824.00;;;;5071423;28;19950;-63
2021/12/11 07:37:40;;;;;;;;;;;14.50;41.90;13.20;100836.00;;;;5059981;28;19920;-62
2021/12/11 07:40:28;;;;;;;;;;;14.50;42.00;13.20;100847.00;;;;5084232;28;19923;-62
2021/12/11 07:43:15;;;;;;;;;;;14.50;41.90;13.20;100834.00;;;;5090713;28;20250;-62
2021/12/11 07:46:01;;;;;;;;;;;14.50;42.00;13.20;100835.00;;;;5073846;28;19927;-62
2021/12/11 07:48:47;;;;;;;;;;;14.50;42.60;13.20;100839.00;;;;5105941;27;19958;-63
2021/12/11 07:51:35;;;;;;;;;;;14.50;41.90;13.20;100855.00;;;;5092745;28;20365;-63
2021/12/11 07:54:21;;;;;;;;;;;14.50;41.90;13.20;100859.00;;;;5072102;28;19920;-62
2021/12/11 07:57:07;;;;;;;;;;;14.50;41.90;13.30;100862.00;;;;5077579;28;20394;-63
2021/12/11 07:59:53;;;;;;;;;;;14.50;41.90;13.30;100861.00;;;;5112381;27;20402;-63
2021/12/11 08:02:39;;;;;;;;;;;14.50;41.90;13.30;100864.00;;;;5100939;27;19922;-63
2021/12/11 08:05:26;;;;;;;;;;;14.50;41.90;13.30;100878.00;;;;5092537;28;20381;-63
2021/12/11 08:08:12;;;;;;;;;;;14.50;41.90;13.30;100882.00;;;;5080314;28;20034;-63
2021/12/11 08:11:00;;;;;;;;;;;14.50;41.90;13.30;100878.00;;;;5076439;28;19924;-62
2021/12/11 08:13:48;;;;;;;;;;;14.50;41.90;13.30;100882.00;;;;5077406;28;20022;-62
2021/12/11 08:16:44;;;;;;;;;;;14.50;41.80;13.30;100889.00;;;;5089521;28;19955;-63
2021/12/11 08:19:30;;;;;;;;;;;14.50;41.90;13.30;100891.00;;;;5079864;28;19916;-63
2021/12/11 08:22:16;;;;;;;;;;;14.50;41.80;13.30;100901.00;;;;5084509;28;20392;-63
2021/12/11 08:25:04;;;;;;;;;;;14.50;41.90;13.30;100901.00;;;;5110732;27;19929;-63
2021/12/11 08:27:50;;;;;;;;;;;14.50;41.90;13.30;100909.00;;;;5090185;28;19919;-63
2021/12/11 08:30:37;;;;;;;;;;;14.50;41.80;13.20;100912.00;;;;5073627;28;19985;-63
2021/12/11 08:33:23;;;;;;;;;;;14.50;41.90;13.30;100920.00;;;;5080963;28;19949;-62
2021/12/11 08:36:10;;;;;;;;;;;14.50;42.60;13.30;100916.00;;;;5089600;28;20277;-63
2021/12/11 08:38:58;;;;;;;;;;;14.50;41.80;13.30;100925.00;;;;5077113;28;20006;-63
2021/12/11 08:41:45;;;;;;;;;;;14.50;41.80;13.30;100928.00;;;;5051370;28;19917;-63
2021/12/11 08:44:37;;;;;;;;;;;14.50;41.80;13.30;100932.00;;;;5049970;28;21599;-63
2021/12/11 08:47:40;;;;;;;;;;;14.50;41.80;13.30;100943.00;;;;5070941;28;19916;-63
2021/12/11 08:50:28;;;;;;;;;;;14.50;41.80;13.30;100955.00;;;;5051673;28;20154;-63
2021/12/11 08:53:15;;;;;;;;;;;14.50;41.90;13.30;100945.00;;;;5058186;28;20255;-63
2021/12/11 08:56:01;;;;;;;;;;;14.50;41.80;13.30;100957.00;;;;5056900;28;20445;-63
2021/12/11 08:58:47;;;;;;;;;;;14.50;41.80;13.30;100963.00;;;;5047444;28;19977;-62
2021/12/11 09:01:44;;;;;;;;;;;14.50;41.80;13.30;100973.00;;;;5058460;28;19943;-63
2021/12/11 09:05:19;;;;;;;;;;;14.50;41.80;13.30;100969.00;;;;5042177;28;20011;-63
2021/12/11 09:08:11;;;;;;;;;;;14.60;41.90;13.30;100980.00;;;;4952617;28;19918;-62
2021/12/11 09:11:20;;;;;;;;;;;14.50;41.80;13.20;100988.00;;;;5047322;28;19925;-62
2021/12/11 09:14:23;;;;;;;;;;;14.50;41.80;13.30;100993.00;;;;5053435;28;22998;-65
2021/12/11 09:17:11;;;;;;;;;;;14.60;41.80;13.30;100999.00;;;;5052320;28;19999;-63
2021/12/11 09:20:37;;;;;;;;;;;14.50;41.80;13.30;101008.00;;;;5045344;28;19920;-62
2021/12/11 09:23:38;;;;;;;;;;;14.50;41.80;13.30;101003.00;;;;5023100;28;20048;-62
2021/12/11 09:26:27;;;;;;;;;;;14.60;41.80;13.30;101008.00;;;;5061092;28;20370;-62
2021/12/11 09:29:48;;;;;;;;;;;14.50;41.80;13.30;101008.00;;;;5030287;28;19924;-68
2021/12/11 09:32:41;;;;;;;;;;;14.50;41.80;13.20;101024.00;;;;5051376;28;19921;-62
2021/12/11 09:35:33;;;;;;;;;;;14.50;41.80;13.20;101021.00;;;;5065372;28;20266;-63
2021/12/11 09:38:26;;;;;;;;;;;14.50;41.80;13.30;101036.00;;;;5053766;28;19916;-63
2021/12/11 09:41:21;;;;;;;;;;;14.50;41.80;13.30;101045.00;;;;5064671;28;19916;-63
2021/12/11 09:44:12;;;;;;;;;;;14.60;41.80;13.30;101048.00;;;;5078293;28;20012;-66
2021/12/11 09:47:02;;;;;;;;;;;14.60;41.80;13.30;101053.00;;;;5058807;28;19920;-62
2021/12/11 09:49:58;;;;;;;;;;;14.50;41.80;13.30;101051.00;;;;5067421;28;19916;-62
2021/12/11 09:52:46;;;;;;;;;;;14.50;41.80;13.30;101069.00;;;;5043676;28;20011;-62
2021/12/11 09:55:36;;;;;;;;;;;14.50;41.70;13.30;101075.00;;;;5069869;28;19939;-62
2021/12/11 09:58:26;;;;;;;;;;;14.60;41.80;13.30;101075.00;;;;5064040;28;19923;-62
2021/12/11 10:01:16;;;;;;;;;;;14.50;41.70;13.30;101080.00;;;;5074272;28;19923;-62
2021/12/11 10:04:28;;;;;;;;;;;14.50;41.80;13.30;101083.00;;;;5067091;28;19917;-62
2021/12/11 10:10:20;;;;;;;;;;;14.50;41.70;13.30;101086.00;;;;5057971;28;20358;-67
2021/12/11 10:13:06;;;;;;;;;;;14.60;41.70;13.30;101093.00;;;;5088981;28;19927;-62
2021/12/11 10:15:53;;;;;;;;;;;14.60;41.70;13.30;101092.00;;;;5059695;28;19917;-62
2021/12/11 10:18:39;;;;;;;;;;;14.60;41.70;13.30;101100.00;;;;5056452;28;20399;-63
2021/12/11 10:21:32;;;;;;;;;;;14.60;41.70;13.30;101104.00;;;;5058176;28;19916;-62
2021/12/11 10:24:21;;;;;;;;;;;14.60;41.70;13.30;101095.00;;;;5061227;28;19969;-61
2021/12/11 10:27:09;;;;;;;;;;;14.60;41.70;13.30;101101.00;;;;5077236;28;20117;-62
2021/12/11 10:29:55;;;;;;;;;;;14.60;41.70;13.30;101110.00;;;;5056930;28;19946;-62
2021/12/11 10:32:41;;;;;;;;;;;14.60;41.70;13.30;101111.00;;;;5057641;28;20468;-61
2021/12/11 10:35:39;;;;;;;;;;;14.60;41.70;13.30;101099.00;;;;5069667;28;19921;-62
2021/12/11 10:38:26;;;;;;;;;;;14.60;41.70;13.30;101096.00;;;;5052404;28;20414;-62
2021/12/11 10:41:12;;;;;;;;;;;14.60;41.70;13.30;101101.00;;;;5073996;28;19916;-61
2021/12/11 10:44:01;;;;;;;;;;;14.60;41.70;13.30;101105.00;;;;5065574;28;20289;-62
2021/12/11 10:47:03;;;;;;;;;;;14.60;41.70;13.30;101114.00;;;;5069048;28;19925;-61
2021/12/11 10:49:49;;;;;;;;;;;14.60;41.70;13.30;101109.00;;;;5055987;28;19998;-63
2021/12/11 10:52:36;;;;;;;;;;;14.60;41.70;13.30;101117.00;;;;5087120;28;19928;-62
2021/12/11 10:55:24;;;;;;;;;;;14.60;41.70;13.30;101122.00;;;;5068298;28;19931;-61
2021/12/11 10:58:15;;;;;;;;;;;14.60;41.70;13.30;101116.00;;;;5084928;28;19920;-62
2021/12/11 11:01:18;;;;;;;;;;;14.60;41.70;13.30;101124.00;;;;5072765;28;19959;-61
2021/12/11 11:04:16;;;;;;;;;;;14.70;41.80;13.30;101120.00;;;;5061283;28;19919;-61
2021/12/11 11:07:03;;;;;;;;;;;14.70;41.70;13.40;101127.00;;;;5066006;28;19925;-63
2021/12/11 11:09:49;;;;;;;;;;;14.60;41.70;13.40;101135.00;;;;5055725;28;20281;-62
2021/12/11 11:12:35;;;;;;;;;;;14.70;42.10;13.40;101130.00;;;;5063924;28;20576;-63
2021/12/11 11:15:22;;;;;;;;;;;14.70;41.70;13.40;101128.00;;;;5071164;28;19916;-63
2021/12/11 11:18:09;;;;;;;;;;;14.70;41.70;13.40;101123.00;;;;5065907;28;19977;-62
2021/12/11 11:21:13;;;;;;;;;;;14.70;41.80;13.40;101130.00;;;;5053104;28;19923;-63
2021/12/11 11:24:00;;;;;;;;;;;14.70;41.70;13.40;101134.00;;;;5080246;28;20431;-71
2021/12/11 11:26:46;;;;;;;;;;;14.70;41.70;13.40;101137.00;;;;5042421;28;19931;-62
2021/12/11 11:29:33;;;;;;;;;;;14.70;41.80;13.40;101138.00;;;;5047585;28;19921;-65
2021/12/11 11:32:22;;;;;;;;;;;14.70;41.70;13.40;101151.00;;;;5074337;28;19952;-63
2021/12/11 11:35:15;;;;;;;;;;;14.80;41.80;13.40;101155.00;;;;5056334;28;20022;-68
2021/12/11 11:38:02;;;;;;;;;;;14.80;41.80;13.40;101154.00;;;;5070418;28;19916;-62
2021/12/11 11:40:50;;;;;;;;;;;14.70;41.70;13.40;101157.00;;;;5072197;28;19974;-62
2021/12/11 11:43:36;;;;;;;;;;;14.80;41.70;13.40;101158.00;;;;5064754;28;19917;-62
2021/12/11 11:46:24;;;;;;;;;;;14.70;41.60;13.40;101159.00;;;;5092552;28;19985;-62
2021/12/11 11:49:11;;;;;;;;;;;14.70;41.70;13.40;101164.00;;;;5060474;28;20432;-62
2021/12/11 11:51:59;;;;;;;;;;;14.70;41.70;13.40;101175.00;;;;5061378;28;19924;-62
2021/12/11 11:54:47;;;;;;;;;;;14.70;41.60;13.40;101178.00;;;;5059917;28;19922;-62
2021/12/11 11:57:36;;;;;;;;;;;14.70;41.70;13.40;101182.00;;;;5049291;28;19916;-62
2021/12/11 12:00:29;;;;;;;;;;;14.70;41.60;13.40;101190.00;;;;5056193;28;19920;-63
2021/12/11 12:03:17;;;;;;;;;;;14.70;41.70;13.40;101192.00;;;;5086456;28;20007;-62
2021/12/11 12:06:06;;;;;;;;;;;14.70;41.70;13.40;101201.00;;;;5065997;28;19917;-62
2021/12/11 12:08:53;;;;;;;;;;;14.70;41.70;13.40;101206.00;;;;5084565;28;19923;-62
2021/12/11 12:11:39;;;;;;;;;;;14.70;41.70;13.40;101215.00;;;;5052721;28;20279;-62
2021/12/11 12:14:30;;;;;;;;;;;14.70;41.70;13.40;101208.00;;;;5070411;28;19920;-62
2021/12/11 12:17:19;;;;;;;;;;;14.60;41.60;13.40;101211.00;;;;5074472;28;19916;-62
2021/12/11 12:20:08;;;;;;;;;;;14.70;41.70;13.40;101225.00;;;;5057038;28;20018;-61
2021/12/11 12:22:54;;;;;;;;;;;14.70;41.70;13.40;101230.00;;;;5072088;28;19916;-62
2021/12/11 12:25:41;;;;;;;;;;;14.70;41.70;13.40;101230.00;;;;5065403;28;19917;-61
2021/12/11 12:28:29;;;;;;;;;;;14.60;41.60;13.40;101226.00;;;;5068936;28;19922;-61
2021/12/11 12:31:18;;;;;;;;;;;14.60;41.70;13.40;101223.00;;;;5077124;28;20012;-63
2021/12/11 12:34:05;;;;;;;;;;;14.60;41.70;13.40;101221.00;;;;5087625;28;20370;-61
2021/12/11 12:36:51;;;;;;;;;;;14.70;41.80;13.40;101229.00;;;;5073858;28;19954;-61
2021/12/11 12:39:40;;;;;;;;;;;14.60;41.70;13.40;101223.00;;;;5041153;28;20000;-61
2021/12/11 12:42:35;;;;;;;;;;;14.60;41.70;13.40;101228.00;;;;5045926;28;19925;-62
2021/12/11 12:45:30;;;;;;;;;;;14.60;41.70;13.40;101232.00;;;;5031755;28;20003;-61
2021/12/11 12:48:19;;;;;;;;;;;14.60;41.70;13.40;101230.00;;;;5054066;28;19927;-61
2021/12/11 12:51:08;;;;;;;;;;;14.70;41.70;13.40;101234.00;;;;5037286;28;20036;-62
2021/12/11 12:53:56;;;;;;;;;;;14.60;41.70;13.40;101239.00;;;;5042746;28;19966;-62
2021/12/11 12:56:46;;;;;;;;;;;14.70;41.80;13.40;101239.00;;;;5030947;28;20421;-62
2021/12/11 12:59:36;;;;;;;;;;;14.70;41.80;13.40;101247.00;;;;5054315;28;20428;-61
2021/12/11 13:02:24;;;;;;;;;;;14.60;41.70;13.40;101252.00;;;;5029805;28;19916;-61
2021/12/11 13:05:18;;;;;;;;;;;14.60;41.70;13.40;101253.00;;;;5058710;28;19917;-62
2021/12/11 13:08:08;;;;;;;;;;;14.70;41.80;13.40;101250.00;;;;5051893;28;19967;-61
2021/12/11 13:11:00;;;;;;;;;;;14.60;41.70;13.40;101258.00;;;;5046841;28;20028;-62
2021/12/11 13:13:48;;;;;;;;;;;14.60;41.70;13.40;101268.00;;;;5049998;28;19921;-61
2021/12/11 13:16:36;;;;;;;;;;;14.60;41.70;13.40;101269.00;;;;5051878;28;19924;-61
2021/12/11 13:19:32;;;;;;;;;;;14.70;41.80;13.40;101280.00;;;;5029640;28;20008;-61
2021/12/11 13:22:28;;;;;;;;;;;14.70;41.80;13.40;101292.00;;;;5052013;28;19967;-62
2021/12/11 13:25:41;;;;;;;;;;;14.60;41.80;13.40;101294.00;;;;5043717;28;19917;-61
2021/12/11 13:28:29;;;;;;;;;;;14.60;41.80;13.40;101299.00;;;;5043160;28;19925;-61
2021/12/11 13:31:19;;;;;;;;;;;14.60;41.70;13.40;101291.00;;;;5027821;28;20186;-62
2021/12/11 13:34:05;;;;;;;;;;;14.60;41.80;13.40;101293.00;;;;5058703;28;20293;-61
2021/12/11 13:36:51;;;;;;;;;;;14.60;41.80;13.40;101306.00;;;;5050913;28;20365;-62
2021/12/11 13:39:39;;;;;;;;;;;14.70;41.80;13.40;101305.00;;;;5036006;28;19932;-61
2021/12/11 13:42:30;;;;;;;;;;;14.70;41.80;13.40;101307.00;;;;5050674;28;19920;-62
2021/12/11 13:45:25;;;;;;;;;;;14.60;41.80;13.40;101311.00;;;;5055007;28;19920;-61
2021/12/11 13:48:12;;;;;;;;;;;14.60;41.80;13.40;101309.00;;;;5039324;28;19920;-62
2021/12/11 13:51:06;;;;;;;;;;;14.60;41.80;13.40;101318.00;;;;5066635;28;19920;-61
2021/12/11 13:53:52;;;;;;;;;;;14.60;41.80;13.40;101313.00;;;;5065048;28;20190;-61
2021/12/11 13:56:51;;;;;;;;;;;14.60;42.50;13.40;101315.00;;;;5033265;28;20366;-61
2021/12/11 13:59:37;;;;;;;;;;;14.60;41.90;13.40;101315.00;;;;5046278;28;19921;-61
2021/12/11 14:02:24;;;;;;;;;;;14.60;41.90;13.40;101311.00;;;;5056520;28;19916;-61